sensor_id;sensor_type;location;lat;lon;timestamp;P1;durP1;ratioP1;P2;durP2;ratioP2
37495;SDS011;23346;52.088;4.746;2022-08-02T00:00:11;6.47;;;2.33;;
37495;SDS011;23346;52.088;4.746;2022-08-02T00:02:38;6.40;;;2.20;;
37495;SDS011;23346;52.088;4.746;2022-08-02T00:05:04;5.03;;;2.20;;
37495;SDS011;23346;52.088;4.746;2022-08-02T00:07:30;6.77;;;2.87;;
37495;SDS011;23346;52.088;4.746;2022-08-02T00:09:56;7.67;;;2.57;;
37495;SDS011;23346;52.088;4.746;2022-08-02T00:12:22;4.10;;;2.20;;
37495;SDS011;23346;52.088;4.746;2022-08-02T00:14:48;8.90;;;2.13;;
37495;SDS011;23346;52.088;4.746;2022-08-02T00:17:14;8.33;;;1.87;;
37495;SDS011;23346;52.088;4.746;2022-08-02T00:19:40;4.67;;;2.03;;
37495;SDS011;23346;52.088;4.746;2022-08-02T00:22:06;5.03;;;1.73;;
37495;SDS011;23346;52.088;4.746;2022-08-02T00:24:33;6.20;;;2.03;;
37495;SDS011;23346;52.088;4.746;2022-08-02T00:26:59;2.53;;;1.90;;
37495;SDS011;23346;52.088;4.746;2022-08-02T00:29:27;3.33;;;1.77;;
37495;SDS011;23346;52.088;4.746;2022-08-02T00:31:53;5.13;;;1.47;;
37495;SDS011;23346;52.088;4.746;2022-08-02T00:34:19;3.43;;;1.90;;
37495;SDS011;23346;52.088;4.746;2022-08-02T00:36:45;7.30;;;2.00;;
37495;SDS011;23346;52.088;4.746;2022-08-02T00:39:11;6.35;;;1.55;;
37495;SDS011;23346;52.088;4.746;2022-08-02T00:41:44;6.65;;;1.40;;
37495;SDS011;23346;52.088;4.746;2022-08-02T00:44:12;4.37;;;1.50;;
37495;SDS011;23346;52.088;4.746;2022-08-02T00:46:38;3.13;;;1.50;;
37495;SDS011;23346;52.088;4.746;2022-08-02T00:49:04;5.27;;;1.60;;
37495;SDS011;23346;52.088;4.746;2022-08-02T00:51:30;3.00;;;1.35;;
37495;SDS011;23346;52.088;4.746;2022-08-02T00:53:56;5.40;;;1.30;;
37495;SDS011;23346;52.088;4.746;2022-08-02T00:56:22;3.83;;;1.30;;
37495;SDS011;23346;52.088;4.746;2022-08-02T00:58:48;5.03;;;1.70;;
37495;SDS011;23346;52.088;4.746;2022-08-02T01:01:14;1.98;;;1.60;;
37495;SDS011;23346;52.088;4.746;2022-08-02T01:03:40;6.57;;;2.13;;
37495;SDS011;23346;52.088;4.746;2022-08-02T01:06:06;4.57;;;1.30;;
37495;SDS011;23346;52.088;4.746;2022-08-02T01:08:32;4.47;;;1.37;;
37495;SDS011;23346;52.088;4.746;2022-08-02T01:10:58;6.80;;;1.20;;
37495;SDS011;23346;52.088;4.746;2022-08-02T01:13:25;6.07;;;1.53;;
37495;SDS011;23346;52.088;4.746;2022-08-02T01:15:54;5.60;;;1.50;;
37495;SDS011;23346;52.088;4.746;2022-08-02T01:18:35;6.13;;;1.67;;
37495;SDS011;23346;52.088;4.746;2022-08-02T01:23:54;3.10;;;1.30;;
37495;SDS011;23346;52.088;4.746;2022-08-02T01:29:06;4.50;;;1.40;;
37495;SDS011;23346;52.088;4.746;2022-08-02T01:31:34;2.70;;;1.60;;
37495;SDS011;23346;52.088;4.746;2022-08-02T01:34:03;5.40;;;1.43;;
37495;SDS011;23346;52.088;4.746;2022-08-02T01:36:38;4.43;;;1.40;;
37495;SDS011;23346;52.088;4.746;2022-08-02T01:39:05;21.97;;;2.27;;
37495;SDS011;23346;52.088;4.746;2022-08-02T01:41:34;5.07;;;1.50;;
37495;SDS011;23346;52.088;4.746;2022-08-02T01:44:00;4.03;;;1.70;;
37495;SDS011;23346;52.088;4.746;2022-08-02T01:46:28;3.47;;;1.77;;
37495;SDS011;23346;52.088;4.746;2022-08-02T01:48:55;3.13;;;1.30;;
37495;SDS011;23346;52.088;4.746;2022-08-02T01:51:22;2.50;;;1.23;;
37495;SDS011;23346;52.088;4.746;2022-08-02T01:54:09;3.07;;;1.40;;
37495;SDS011;23346;52.088;4.746;2022-08-02T01:56:36;5.40;;;2.10;;
37495;SDS011;23346;52.088;4.746;2022-08-02T01:59:03;7.57;;;1.60;;
37495;SDS011;23346;52.088;4.746;2022-08-02T02:01:30;5.67;;;1.60;;
37495;SDS011;23346;52.088;4.746;2022-08-02T02:03:57;5.10;;;1.60;;
37495;SDS011;23346;52.088;4.746;2022-08-02T02:06:24;5.00;;;1.57;;
37495;SDS011;23346;52.088;4.746;2022-08-02T02:08:50;6.03;;;1.73;;
37495;SDS011;23346;52.088;4.746;2022-08-02T02:11:17;6.90;;;1.87;;
37495;SDS011;23346;52.088;4.746;2022-08-02T02:13:43;4.07;;;1.40;;
37495;SDS011;23346;52.088;4.746;2022-08-02T02:16:09;4.00;;;1.60;;
37495;SDS011;23346;52.088;4.746;2022-08-02T02:18:38;6.67;;;1.70;;
37495;SDS011;23346;52.088;4.746;2022-08-02T02:21:04;4.07;;;1.90;;
37495;SDS011;23346;52.088;4.746;2022-08-02T02:23:30;10.20;;;2.33;;
37495;SDS011;23346;52.088;4.746;2022-08-02T02:25:57;2.90;;;2.07;;
37495;SDS011;23346;52.088;4.746;2022-08-02T02:28:26;5.73;;;2.30;;
37495;SDS011;23346;52.088;4.746;2022-08-02T02:31:06;6.60;;;2.00;;
37495;SDS011;23346;52.088;4.746;2022-08-02T02:33:34;7.67;;;2.20;;
37495;SDS011;23346;52.088;4.746;2022-08-02T02:36:01;6.97;;;2.27;;
37495;SDS011;23346;52.088;4.746;2022-08-02T02:38:29;5.83;;;2.30;;
37495;SDS011;23346;52.088;4.746;2022-08-02T02:40:56;9.93;;;2.67;;
37495;SDS011;23346;52.088;4.746;2022-08-02T02:43:23;5.03;;;2.27;;
37495;SDS011;23346;52.088;4.746;2022-08-02T02:45:50;6.70;;;3.00;;
37495;SDS011;23346;52.088;4.746;2022-08-02T02:48:16;8.87;;;2.90;;
37495;SDS011;23346;52.088;4.746;2022-08-02T02:50:42;5.43;;;2.40;;
37495;SDS011;23346;52.088;4.746;2022-08-02T02:53:09;8.33;;;2.87;;
37495;SDS011;23346;52.088;4.746;2022-08-02T02:55:36;7.37;;;2.93;;
37495;SDS011;23346;52.088;4.746;2022-08-02T02:58:02;6.47;;;2.57;;
37495;SDS011;23346;52.088;4.746;2022-08-02T03:00:29;5.60;;;2.70;;
37495;SDS011;23346;52.088;4.746;2022-08-02T03:03:14;5.07;;;2.60;;
37495;SDS011;23346;52.088;4.746;2022-08-02T03:05:40;8.37;;;2.83;;
37495;SDS011;23346;52.088;4.746;2022-08-02T03:08:06;6.00;;;3.00;;
37495;SDS011;23346;52.088;4.746;2022-08-02T03:10:33;5.50;;;2.93;;
37495;SDS011;23346;52.088;4.746;2022-08-02T03:12:59;7.87;;;3.20;;
37495;SDS011;23346;52.088;4.746;2022-08-02T03:15:28;11.60;;;2.73;;
37495;SDS011;23346;52.088;4.746;2022-08-02T03:17:54;5.67;;;3.07;;
37495;SDS011;23346;52.088;4.746;2022-08-02T03:20:20;11.00;;;3.30;;
37495;SDS011;23346;52.088;4.746;2022-08-02T03:22:47;5.33;;;2.87;;
37495;SDS011;23346;52.088;4.746;2022-08-02T03:25:13;6.17;;;3.03;;
37495;SDS011;23346;52.088;4.746;2022-08-02T03:27:40;7.67;;;3.30;;
37495;SDS011;23346;52.088;4.746;2022-08-02T03:30:07;8.80;;;3.10;;
37495;SDS011;23346;52.088;4.746;2022-08-02T03:32:36;7.80;;;2.60;;
37495;SDS011;23346;52.088;4.746;2022-08-02T03:35:03;8.70;;;2.90;;
37495;SDS011;23346;52.088;4.746;2022-08-02T03:37:30;11.87;;;3.07;;
37495;SDS011;23346;52.088;4.746;2022-08-02T03:39:56;13.13;;;3.03;;
37495;SDS011;23346;52.088;4.746;2022-08-02T03:42:23;4.77;;;3.07;;
37495;SDS011;23346;52.088;4.746;2022-08-02T03:44:50;7.40;;;2.77;;
37495;SDS011;23346;52.088;4.746;2022-08-02T03:47:17;7.43;;;3.77;;
37495;SDS011;23346;52.088;4.746;2022-08-02T03:49:43;10.03;;;2.97;;
37495;SDS011;23346;52.088;4.746;2022-08-02T03:52:10;5.70;;;3.07;;
37495;SDS011;23346;52.088;4.746;2022-08-02T03:54:36;5.90;;;2.80;;
37495;SDS011;23346;52.088;4.746;2022-08-02T03:57:04;8.10;;;2.80;;
37495;SDS011;23346;52.088;4.746;2022-08-02T03:59:38;7.07;;;3.63;;
37495;SDS011;23346;52.088;4.746;2022-08-02T04:02:04;4.43;;;2.77;;
37495;SDS011;23346;52.088;4.746;2022-08-02T04:04:30;9.17;;;3.23;;
37495;SDS011;23346;52.088;4.746;2022-08-02T04:06:56;10.40;;;3.13;;
37495;SDS011;23346;52.088;4.746;2022-08-02T04:09:22;9.23;;;3.57;;
37495;SDS011;23346;52.088;4.746;2022-08-02T04:11:48;5.97;;;3.50;;
37495;SDS011;23346;52.088;4.746;2022-08-02T04:14:14;9.07;;;3.30;;
37495;SDS011;23346;52.088;4.746;2022-08-02T04:16:43;6.17;;;2.97;;
37495;SDS011;23346;52.088;4.746;2022-08-02T04:19:12;9.23;;;3.40;;
37495;SDS011;23346;52.088;4.746;2022-08-02T04:21:39;4.63;;;3.00;;
37495;SDS011;23346;52.088;4.746;2022-08-02T04:24:07;7.83;;;3.30;;
37495;SDS011;23346;52.088;4.746;2022-08-02T04:26:34;5.67;;;3.07;;
37495;SDS011;23346;52.088;4.746;2022-08-02T04:29:00;7.33;;;2.97;;
37495;SDS011;23346;52.088;4.746;2022-08-02T04:31:27;6.43;;;3.17;;
37495;SDS011;23346;52.088;4.746;2022-08-02T04:33:53;7.27;;;3.80;;
37495;SDS011;23346;52.088;4.746;2022-08-02T04:36:20;8.07;;;3.00;;
37495;SDS011;23346;52.088;4.746;2022-08-02T04:38:47;7.20;;;3.07;;
37495;SDS011;23346;52.088;4.746;2022-08-02T04:41:13;4.67;;;3.27;;
37495;SDS011;23346;52.088;4.746;2022-08-02T04:43:40;7.43;;;3.70;;
37495;SDS011;23346;52.088;4.746;2022-08-02T04:46:06;9.00;;;3.30;;
37495;SDS011;23346;52.088;4.746;2022-08-02T04:48:32;8.40;;;3.33;;
37495;SDS011;23346;52.088;4.746;2022-08-02T04:50:58;10.17;;;3.00;;
37495;SDS011;23346;52.088;4.746;2022-08-02T04:53:24;9.40;;;3.13;;
37495;SDS011;23346;52.088;4.746;2022-08-02T04:55:50;9.20;;;3.53;;
37495;SDS011;23346;52.088;4.746;2022-08-02T04:58:16;9.07;;;3.63;;
37495;SDS011;23346;52.088;4.746;2022-08-02T05:00:42;8.87;;;3.20;;
37495;SDS011;23346;52.088;4.746;2022-08-02T05:03:09;5.80;;;3.53;;
37495;SDS011;23346;52.088;4.746;2022-08-02T05:05:35;10.10;;;3.27;;
37495;SDS011;23346;52.088;4.746;2022-08-02T05:08:01;8.57;;;3.10;;
37495;SDS011;23346;52.088;4.746;2022-08-02T05:10:27;7.33;;;2.77;;
37495;SDS011;23346;52.088;4.746;2022-08-02T05:12:53;11.03;;;3.00;;
37495;SDS011;23346;52.088;4.746;2022-08-02T05:15:19;9.50;;;3.07;;
37495;SDS011;23346;52.088;4.746;2022-08-02T05:17:45;5.17;;;2.90;;
37495;SDS011;23346;52.088;4.746;2022-08-02T05:20:12;7.07;;;2.60;;
37495;SDS011;23346;52.088;4.746;2022-08-02T05:22:38;9.00;;;2.80;;
37495;SDS011;23346;52.088;4.746;2022-08-02T05:25:04;7.37;;;2.50;;
37495;SDS011;23346;52.088;4.746;2022-08-02T05:27:30;7.17;;;2.80;;
37495;SDS011;23346;52.088;4.746;2022-08-02T05:29:57;5.93;;;2.40;;
37495;SDS011;23346;52.088;4.746;2022-08-02T05:32:23;7.33;;;2.33;;
37495;SDS011;23346;52.088;4.746;2022-08-02T05:34:49;5.53;;;2.23;;
37495;SDS011;23346;52.088;4.746;2022-08-02T05:37:15;6.23;;;2.60;;
37495;SDS011;23346;52.088;4.746;2022-08-02T05:39:41;7.20;;;2.77;;
37495;SDS011;23346;52.088;4.746;2022-08-02T05:42:07;11.70;;;2.90;;
37495;SDS011;23346;52.088;4.746;2022-08-02T05:44:33;6.97;;;2.30;;
37495;SDS011;23346;52.088;4.746;2022-08-02T05:46:59;6.07;;;2.50;;
37495;SDS011;23346;52.088;4.746;2022-08-02T05:49:25;4.87;;;2.50;;
37495;SDS011;23346;52.088;4.746;2022-08-02T05:51:55;7.47;;;2.37;;
37495;SDS011;23346;52.088;4.746;2022-08-02T05:54:26;10.20;;;3.17;;
37495;SDS011;23346;52.088;4.746;2022-08-02T06:02:08;5.35;;;2.80;;
37495;SDS011;23346;52.088;4.746;2022-08-02T06:04:46;6.43;;;3.20;;
37495;SDS011;23346;52.088;4.746;2022-08-02T06:07:17;5.15;;;2.72;;
37495;SDS011;23346;52.088;4.746;2022-08-02T06:09:44;6.30;;;2.85;;
37495;SDS011;23346;52.088;4.746;2022-08-02T06:12:11;5.32;;;2.80;;
37495;SDS011;23346;52.088;4.746;2022-08-02T06:14:39;6.85;;;3.17;;
37495;SDS011;23346;52.088;4.746;2022-08-02T06:17:06;6.57;;;3.08;;
37495;SDS011;23346;52.088;4.746;2022-08-02T06:19:33;6.70;;;3.20;;
37495;SDS011;23346;52.088;4.746;2022-08-02T06:22:00;7.93;;;2.97;;
37495;SDS011;23346;52.088;4.746;2022-08-02T06:24:41;8.90;;;3.45;;
37495;SDS011;23346;52.088;4.746;2022-08-02T06:27:07;8.73;;;3.47;;
37495;SDS011;23346;52.088;4.746;2022-08-02T06:29:33;9.13;;;3.20;;
37495;SDS011;23346;52.088;4.746;2022-08-02T06:32:01;7.70;;;3.28;;
37495;SDS011;23346;52.088;4.746;2022-08-02T06:34:27;10.55;;;3.75;;
37495;SDS011;23346;52.088;4.746;2022-08-02T06:37:03;7.43;;;3.53;;
37495;SDS011;23346;52.088;4.746;2022-08-02T06:39:35;11.90;;;4.47;;
37495;SDS011;23346;52.088;4.746;2022-08-02T06:42:06;9.73;;;4.18;;
37495;SDS011;23346;52.088;4.746;2022-08-02T06:44:36;8.98;;;3.47;;
37495;SDS011;23346;52.088;4.746;2022-08-02T06:47:02;8.32;;;3.92;;
37495;SDS011;23346;52.088;4.746;2022-08-02T06:49:28;12.45;;;4.80;;
37495;SDS011;23346;52.088;4.746;2022-08-02T06:51:54;8.75;;;4.90;;
37495;SDS011;23346;52.088;4.746;2022-08-02T06:54:20;9.80;;;5.32;;
37495;SDS011;23346;52.088;4.746;2022-08-02T06:56:47;10.35;;;4.80;;
37495;SDS011;23346;52.088;4.746;2022-08-02T06:59:13;10.20;;;5.15;;
37495;SDS011;23346;52.088;4.746;2022-08-02T07:01:39;10.70;;;5.40;;
37495;SDS011;23346;52.088;4.746;2022-08-02T07:04:05;12.75;;;5.80;;
37495;SDS011;23346;52.088;4.746;2022-08-02T07:06:31;10.27;;;5.45;;
37495;SDS011;23346;52.088;4.746;2022-08-02T07:08:57;10.55;;;6.47;;
37495;SDS011;23346;52.088;4.746;2022-08-02T07:11:23;15.48;;;5.60;;
37495;SDS011;23346;52.088;4.746;2022-08-02T07:13:49;13.82;;;6.15;;
37495;SDS011;23346;52.088;4.746;2022-08-02T07:16:15;17.10;;;7.60;;
37495;SDS011;23346;52.088;4.746;2022-08-02T07:18:41;12.38;;;7.13;;
37495;SDS011;23346;52.088;4.746;2022-08-02T07:21:07;13.27;;;7.20;;
37495;SDS011;23346;52.088;4.746;2022-08-02T07:23:33;14.25;;;7.22;;
37495;SDS011;23346;52.088;4.746;2022-08-02T07:25:59;11.32;;;6.85;;
37495;SDS011;23346;52.088;4.746;2022-08-02T07:28:25;14.65;;;7.45;;
37495;SDS011;23346;52.088;4.746;2022-08-02T07:30:51;12.98;;;8.00;;
37495;SDS011;23346;52.088;4.746;2022-08-02T07:33:17;17.83;;;7.82;;
37495;SDS011;23346;52.088;4.746;2022-08-02T07:35:43;13.50;;;7.38;;
37495;SDS011;23346;52.088;4.746;2022-08-02T07:38:09;13.30;;;6.75;;
37495;SDS011;23346;52.088;4.746;2022-08-02T07:40:35;13.15;;;7.25;;
37495;SDS011;23346;52.088;4.746;2022-08-02T07:43:01;13.18;;;6.95;;
37495;SDS011;23346;52.088;4.746;2022-08-02T07:45:28;10.13;;;6.70;;
37495;SDS011;23346;52.088;4.746;2022-08-02T07:47:54;14.00;;;7.43;;
37495;SDS011;23346;52.088;4.746;2022-08-02T07:50:21;12.88;;;6.70;;
37495;SDS011;23346;52.088;4.746;2022-08-02T07:52:47;14.25;;;7.38;;
37495;SDS011;23346;52.088;4.746;2022-08-02T07:55:13;14.18;;;6.78;;
37495;SDS011;23346;52.088;4.746;2022-08-02T07:57:40;15.73;;;6.80;;
37495;SDS011;23346;52.088;4.746;2022-08-02T08:00:06;11.38;;;6.53;;
37495;SDS011;23346;52.088;4.746;2022-08-02T08:02:33;8.85;;;5.72;;
37495;SDS011;23346;52.088;4.746;2022-08-02T08:04:59;14.23;;;6.68;;
37495;SDS011;23346;52.088;4.746;2022-08-02T08:07:26;11.93;;;6.30;;
37495;SDS011;23346;52.088;4.746;2022-08-02T08:09:52;14.00;;;5.50;;
37495;SDS011;23346;52.088;4.746;2022-08-02T08:12:18;10.23;;;6.45;;
37495;SDS011;23346;52.088;4.746;2022-08-02T08:14:45;11.35;;;6.28;;
37495;SDS011;23346;52.088;4.746;2022-08-02T08:17:11;11.02;;;5.68;;
37495;SDS011;23346;52.088;4.746;2022-08-02T08:19:37;11.00;;;6.15;;
37495;SDS011;23346;52.088;4.746;2022-08-02T08:22:03;7.20;;;5.55;;
37495;SDS011;23346;52.088;4.746;2022-08-02T08:24:30;7.85;;;5.18;;
37495;SDS011;23346;52.088;4.746;2022-08-02T08:26:56;8.98;;;5.20;;
37495;SDS011;23346;52.088;4.746;2022-08-02T08:29:22;10.57;;;5.93;;
37495;SDS011;23346;52.088;4.746;2022-08-02T08:31:50;14.32;;;6.18;;
37495;SDS011;23346;52.088;4.746;2022-08-02T08:34:16;8.77;;;5.70;;
37495;SDS011;23346;52.088;4.746;2022-08-02T08:36:42;7.93;;;5.28;;
37495;SDS011;23346;52.088;4.746;2022-08-02T08:39:08;7.90;;;4.65;;
37495;SDS011;23346;52.088;4.746;2022-08-02T08:41:35;11.75;;;5.43;;
37495;SDS011;23346;52.088;4.746;2022-08-02T08:44:01;8.82;;;5.75;;
37495;SDS011;23346;52.088;4.746;2022-08-02T08:46:28;13.23;;;6.35;;
37495;SDS011;23346;52.088;4.746;2022-08-02T08:48:59;9.50;;;6.07;;
37495;SDS011;23346;52.088;4.746;2022-08-02T08:51:35;10.07;;;5.60;;
37495;SDS011;23346;52.088;4.746;2022-08-02T08:54:02;12.35;;;5.03;;
37495;SDS011;23346;52.088;4.746;2022-08-02T08:56:32;7.78;;;5.13;;
37495;SDS011;23346;52.088;4.746;2022-08-02T08:59:00;9.50;;;4.60;;
37495;SDS011;23346;52.088;4.746;2022-08-02T09:01:26;7.28;;;4.00;;
37495;SDS011;23346;52.088;4.746;2022-08-02T09:03:52;7.35;;;4.43;;
37495;SDS011;23346;52.088;4.746;2022-08-02T09:06:18;7.97;;;4.93;;
37495;SDS011;23346;52.088;4.746;2022-08-02T09:08:44;12.38;;;5.25;;
37495;SDS011;23346;52.088;4.746;2022-08-02T09:11:11;8.88;;;5.22;;
37495;SDS011;23346;52.088;4.746;2022-08-02T09:13:37;9.00;;;4.80;;
37495;SDS011;23346;52.088;4.746;2022-08-02T09:16:04;7.40;;;4.07;;
37495;SDS011;23346;52.088;4.746;2022-08-02T09:18:38;6.07;;;3.63;;
37495;SDS011;23346;52.088;4.746;2022-08-02T09:21:06;7.80;;;4.72;;
37495;SDS011;23346;52.088;4.746;2022-08-02T09:23:35;8.05;;;4.18;;
37495;SDS011;23346;52.088;4.746;2022-08-02T09:26:02;6.63;;;3.85;;
37495;SDS011;23346;52.088;4.746;2022-08-02T09:28:32;8.20;;;3.45;;
37495;SDS011;23346;52.088;4.746;2022-08-02T09:31:05;5.50;;;4.03;;
37495;SDS011;23346;52.088;4.746;2022-08-02T09:33:31;5.63;;;4.13;;
37495;SDS011;23346;52.088;4.746;2022-08-02T09:35:58;9.95;;;3.85;;
37495;SDS011;23346;52.088;4.746;2022-08-02T09:38:24;5.57;;;3.47;;
37495;SDS011;23346;52.088;4.746;2022-08-02T09:40:50;7.05;;;3.03;;
37495;SDS011;23346;52.088;4.746;2022-08-02T09:43:16;4.22;;;2.75;;
37495;SDS011;23346;52.088;4.746;2022-08-02T09:45:43;7.28;;;3.45;;
37495;SDS011;23346;52.088;4.746;2022-08-02T09:48:10;4.00;;;2.72;;
37495;SDS011;23346;52.088;4.746;2022-08-02T09:50:36;5.70;;;3.35;;
37495;SDS011;23346;52.088;4.746;2022-08-02T09:53:02;6.60;;;3.42;;
37495;SDS011;23346;52.088;4.746;2022-08-02T09:55:29;4.75;;;3.22;;
37495;SDS011;23346;52.088;4.746;2022-08-02T09:57:55;7.13;;;2.70;;
37495;SDS011;23346;52.088;4.746;2022-08-02T10:00:21;4.78;;;3.05;;
37495;SDS011;23346;52.088;4.746;2022-08-02T10:08:33;5.72;;;2.85;;
37495;SDS011;23346;52.088;4.746;2022-08-02T10:10:59;5.30;;;2.33;;
37495;SDS011;23346;52.088;4.746;2022-08-02T10:13:29;3.45;;;2.38;;
37495;SDS011;23346;52.088;4.746;2022-08-02T10:15:55;6.55;;;2.47;;
37495;SDS011;23346;52.088;4.746;2022-08-02T10:18:21;4.65;;;2.85;;
37495;SDS011;23346;52.088;4.746;2022-08-02T10:20:47;4.57;;;2.45;;
37495;SDS011;23346;52.088;4.746;2022-08-02T10:23:14;5.15;;;3.08;;
37495;SDS011;23346;52.088;4.746;2022-08-02T10:25:41;7.80;;;3.50;;
37495;SDS011;23346;52.088;4.746;2022-08-02T10:28:08;7.50;;;3.30;;
37495;SDS011;23346;52.088;4.746;2022-08-02T10:30:35;6.40;;;2.80;;
37495;SDS011;23346;52.088;4.746;2022-08-02T10:33:02;3.83;;;2.55;;
37495;SDS011;23346;52.088;4.746;2022-08-02T10:35:29;3.63;;;2.47;;
37495;SDS011;23346;52.088;4.746;2022-08-02T10:38:01;6.35;;;2.47;;
37495;SDS011;23346;52.088;4.746;2022-08-02T10:52:19;5.70;;;2.78;;
37495;SDS011;23346;52.088;4.746;2022-08-02T10:54:20;3.17;;;2.38;;
37495;SDS011;23346;52.088;4.746;2022-08-02T10:56:48;4.93;;;2.45;;
37495;SDS011;23346;52.088;4.746;2022-08-02T10:59:22;6.50;;;2.97;;
37495;SDS011;23346;52.088;4.746;2022-08-02T11:01:49;4.38;;;1.90;;
37495;SDS011;23346;52.088;4.746;2022-08-02T11:04:16;5.22;;;2.45;;
37495;SDS011;23346;52.088;4.746;2022-08-02T11:11:59;5.95;;;2.92;;
37495;SDS011;23346;52.088;4.746;2022-08-02T11:14:26;2.95;;;2.10;;
37495;SDS011;23346;52.088;4.746;2022-08-02T11:19:30;5.07;;;2.55;;
37495;SDS011;23346;52.088;4.746;2022-08-02T11:22:14;8.95;;;2.40;;
37495;SDS011;23346;52.088;4.746;2022-08-02T11:24:42;5.97;;;2.40;;
37495;SDS011;23346;52.088;4.746;2022-08-02T11:27:17;7.32;;;3.28;;
37495;SDS011;23346;52.088;4.746;2022-08-02T11:29:44;4.35;;;2.60;;
37495;SDS011;23346;52.088;4.746;2022-08-02T11:32:22;6.63;;;2.58;;
37495;SDS011;23346;52.088;4.746;2022-08-02T11:34:51;5.75;;;2.35;;
37495;SDS011;23346;52.088;4.746;2022-08-02T11:37:31;3.65;;;2.88;;
37495;SDS011;23346;52.088;4.746;2022-08-02T11:39:58;7.70;;;2.58;;
37495;SDS011;23346;52.088;4.746;2022-08-02T11:42:31;3.88;;;2.33;;
37495;SDS011;23346;52.088;4.746;2022-08-02T11:44:57;14.75;;;4.07;;
37495;SDS011;23346;52.088;4.746;2022-08-02T11:47:23;4.00;;;1.95;;
37495;SDS011;23346;52.088;4.746;2022-08-02T11:49:50;4.60;;;2.30;;
37495;SDS011;23346;52.088;4.746;2022-08-02T11:52:16;4.78;;;1.40;;
37495;SDS011;23346;52.088;4.746;2022-08-02T11:54:43;5.03;;;1.35;;
37495;SDS011;23346;52.088;4.746;2022-08-02T11:59:38;4.40;;;1.58;;
37495;SDS011;23346;52.088;4.746;2022-08-02T12:02:05;2.65;;;1.42;;
37495;SDS011;23346;52.088;4.746;2022-08-02T12:04:31;4.05;;;1.60;;
37495;SDS011;23346;52.088;4.746;2022-08-02T12:06:57;4.70;;;1.60;;
37495;SDS011;23346;52.088;4.746;2022-08-02T12:09:24;3.75;;;1.80;;
37495;SDS011;23346;52.088;4.746;2022-08-02T12:11:51;5.20;;;2.10;;
37495;SDS011;23346;52.088;4.746;2022-08-02T12:14:17;8.15;;;2.10;;
37495;SDS011;23346;52.088;4.746;2022-08-02T12:16:43;4.97;;;1.92;;
37495;SDS011;23346;52.088;4.746;2022-08-02T12:19:28;4.70;;;2.22;;
37495;SDS011;23346;52.088;4.746;2022-08-02T12:24:40;4.05;;;2.00;;
37495;SDS011;23346;52.088;4.746;2022-08-02T12:27:07;12.45;;;2.08;;
37495;SDS011;23346;52.088;4.746;2022-08-02T12:29:34;5.53;;;2.28;;
37495;SDS011;23346;52.088;4.746;2022-08-02T12:32:01;3.08;;;1.75;;
37495;SDS011;23346;52.088;4.746;2022-08-02T12:34:28;5.22;;;1.73;;
37495;SDS011;23346;52.088;4.746;2022-08-02T12:37:04;4.65;;;2.42;;
37495;SDS011;23346;52.088;4.746;2022-08-02T12:39:36;6.97;;;2.70;;
37495;SDS011;23346;52.088;4.746;2022-08-02T12:42:02;6.03;;;1.90;;
37495;SDS011;23346;52.088;4.746;2022-08-02T12:44:29;6.10;;;2.25;;
37495;SDS011;23346;52.088;4.746;2022-08-02T12:47:01;5.05;;;1.90;;
37495;SDS011;23346;52.088;4.746;2022-08-02T12:49:28;8.18;;;2.03;;
37495;SDS011;23346;52.088;4.746;2022-08-02T12:51:54;2.88;;;1.88;;
37495;SDS011;23346;52.088;4.746;2022-08-02T12:54:24;3.22;;;1.73;;
37495;SDS011;23346;52.088;4.746;2022-08-02T12:56:51;5.68;;;1.70;;
37495;SDS011;23346;52.088;4.746;2022-08-02T12:59:31;2.67;;;1.77;;
37495;SDS011;23346;52.088;4.746;2022-08-02T13:02:05;3.17;;;1.23;;
37495;SDS011;23346;52.088;4.746;2022-08-02T13:04:31;5.32;;;1.48;;
37495;SDS011;23346;52.088;4.746;2022-08-02T13:06:57;8.07;;;1.63;;
37495;SDS011;23346;52.088;4.746;2022-08-02T13:09:24;5.25;;;1.30;;
37495;SDS011;23346;52.088;4.746;2022-08-02T13:11:50;2.45;;;1.23;;
37495;SDS011;23346;52.088;4.746;2022-08-02T13:14:16;3.70;;;1.45;;
37495;SDS011;23346;52.088;4.746;2022-08-02T13:16:42;5.30;;;2.03;;
37495;SDS011;23346;52.088;4.746;2022-08-02T13:19:09;4.68;;;1.30;;
37495;SDS011;23346;52.088;4.746;2022-08-02T13:21:36;2.95;;;1.65;;
37495;SDS011;23346;52.088;4.746;2022-08-02T13:24:02;10.82;;;2.58;;
37495;SDS011;23346;52.088;4.746;2022-08-02T13:26:30;7.72;;;1.58;;
37495;SDS011;23346;52.088;4.746;2022-08-02T13:28:56;6.72;;;1.70;;
37495;SDS011;23346;52.088;4.746;2022-08-02T13:31:22;6.82;;;1.50;;
37495;SDS011;23346;52.088;4.746;2022-08-02T13:33:48;5.78;;;1.13;;
37495;SDS011;23346;52.088;4.746;2022-08-02T13:36:14;5.68;;;1.30;;
37495;SDS011;23346;52.088;4.746;2022-08-02T13:38:40;3.67;;;1.10;;
37495;SDS011;23346;52.088;4.746;2022-08-02T13:41:06;2.55;;;1.52;;
37495;SDS011;23346;52.088;4.746;2022-08-02T13:43:32;3.38;;;1.30;;
37495;SDS011;23346;52.088;4.746;2022-08-02T13:45:58;4.95;;;1.20;;
37495;SDS011;23346;52.088;4.746;2022-08-02T13:48:24;4.95;;;1.40;;
37495;SDS011;23346;52.088;4.746;2022-08-02T13:50:50;4.13;;;1.30;;
37495;SDS011;23346;52.088;4.746;2022-08-02T13:53:16;5.57;;;1.10;;
37495;SDS011;23346;52.088;4.746;2022-08-02T13:55:42;7.68;;;1.60;;
37495;SDS011;23346;52.088;4.746;2022-08-02T13:58:08;7.63;;;1.15;;
37495;SDS011;23346;52.088;4.746;2022-08-02T14:00:34;11.75;;;1.45;;
37495;SDS011;23346;52.088;4.746;2022-08-02T14:03:01;7.78;;;1.02;;
37495;SDS011;23346;52.088;4.746;2022-08-02T14:05:27;7.50;;;1.25;;
37495;SDS011;23346;52.088;4.746;2022-08-02T14:07:56;4.05;;;1.10;;
37495;SDS011;23346;52.088;4.746;2022-08-02T14:10:23;6.63;;;1.02;;
37495;SDS011;23346;52.088;4.746;2022-08-02T14:12:50;6.43;;;1.35;;
37495;SDS011;23346;52.088;4.746;2022-08-02T14:15:16;10.40;;;1.48;;
37495;SDS011;23346;52.088;4.746;2022-08-02T14:17:42;4.50;;;1.30;;
37495;SDS011;23346;52.088;4.746;2022-08-02T14:20:08;9.95;;;1.33;;
37495;SDS011;23346;52.088;4.746;2022-08-02T14:22:35;4.85;;;0.90;;
37495;SDS011;23346;52.088;4.746;2022-08-02T14:25:01;13.20;;;1.30;;
37495;SDS011;23346;52.088;4.746;2022-08-02T14:27:27;10.68;;;1.15;;
37495;SDS011;23346;52.088;4.746;2022-08-02T14:29:55;5.05;;;1.20;;
37495;SDS011;23346;52.088;4.746;2022-08-02T14:32:21;6.97;;;1.40;;
37495;SDS011;23346;52.088;4.746;2022-08-02T14:34:47;9.27;;;1.50;;
37495;SDS011;23346;52.088;4.746;2022-08-02T14:37:13;6.93;;;1.40;;
37495;SDS011;23346;52.088;4.746;2022-08-02T14:39:39;2.85;;;1.20;;
37495;SDS011;23346;52.088;4.746;2022-08-02T14:42:05;5.43;;;0.90;;
37495;SDS011;23346;52.088;4.746;2022-08-02T14:44:32;7.53;;;1.35;;
37495;SDS011;23346;52.088;4.746;2022-08-02T14:46:58;4.15;;;1.10;;
37495;SDS011;23346;52.088;4.746;2022-08-02T14:49:24;2.83;;;0.98;;
37495;SDS011;23346;52.088;4.746;2022-08-02T14:51:50;7.20;;;1.20;;
37495;SDS011;23346;52.088;4.746;2022-08-02T14:54:16;5.07;;;1.30;;
37495;SDS011;23346;52.088;4.746;2022-08-02T14:56:42;5.15;;;1.02;;
37495;SDS011;23346;52.088;4.746;2022-08-02T14:59:09;6.30;;;1.38;;
37495;SDS011;23346;52.088;4.746;2022-08-02T15:01:35;8.02;;;0.85;;
37495;SDS011;23346;52.088;4.746;2022-08-02T15:04:01;9.93;;;1.17;;
37495;SDS011;23346;52.088;4.746;2022-08-02T15:06:28;7.53;;;0.98;;
37495;SDS011;23346;52.088;4.746;2022-08-02T15:08:57;5.85;;;0.90;;
37495;SDS011;23346;52.088;4.746;2022-08-02T15:11:23;7.13;;;0.90;;
37495;SDS011;23346;52.088;4.746;2022-08-02T15:13:49;4.50;;;1.08;;
37495;SDS011;23346;52.088;4.746;2022-08-02T15:16:15;3.75;;;1.08;;
37495;SDS011;23346;52.088;4.746;2022-08-02T15:18:42;9.80;;;1.88;;
37495;SDS011;23346;52.088;4.746;2022-08-02T15:21:08;5.15;;;1.20;;
37495;SDS011;23346;52.088;4.746;2022-08-02T15:23:34;4.25;;;0.73;;
37495;SDS011;23346;52.088;4.746;2022-08-02T15:26:01;6.20;;;1.00;;